Time,TemperatureF,DewpointF,PressureIn,WindDirection,WindDirectionDegrees,WindSpeedMPH,WindSpeedGustMPH,Humidity,HourlyPrecipIn,Conditions,Clouds,dailyrainin,SoftwareType,DateUTC
2013-05-18 00:01:00,60.0,38.0,-100.00,SE,145,12.0,18.0,43,-99.99,,,-99.99,,2013-05-18 07:01:00,
2013-05-18 01:01:00,59.0,37.0,-100.00,SE,140,12.0,15.0,43,-99.99,,,-99.99,,2013-05-18 08:01:00,
2013-05-18 01:11:00,59.0,37.0,-100.00,SE,140,12.0,15.0,43,-99.99,,,-99.99,,2013-05-18 08:11:00,
2013-05-18 02:02:00,59.0,38.0,-100.00,SSE,165,9.0,14.0,45,-99.99,,,-99.99,,2013-05-18 09:02:00,
2013-05-18 03:02:00,58.0,38.0,-100.00,SE,145,6.0,12.0,47,-99.99,,,-99.99,,2013-05-18 10:02:00,
2013-05-18 03:12:00,58.0,38.0,-100.00,SE,145,6.0,12.0,47,-99.99,,,-99.99,,2013-05-18 10:12:00,
2013-05-18 04:02:00,58.0,38.0,-100.00,SE,135,7.0,13.0,47,-99.99,,,-99.99,,2013-05-18 11:02:00,
2013-05-18 05:01:00,56.0,38.0,-100.00,SE,140,7.0,13.0,50,-99.99,,,-99.99,,2013-05-18 12:01:00,
2013-05-18 05:12:00,56.0,38.0,-100.00,SE,140,7.0,13.0,50,-99.99,,,-99.99,,2013-05-18 12:12:00,
2013-05-18 06:01:00,56.0,39.0,-100.00,East,90,7.0,14.0,52,-99.99,,,-99.99,,2013-05-18 13:01:00,
2013-05-18 06:10:00,55.0,39.0,-100.00,SE,135,7.0,12.0,54,-99.99,,,-99.99,,2013-05-18 13:10:00,
2013-05-18 07:03:00,55.0,39.0,-100.00,SE,135,7.0,12.0,54,-99.99,,,-99.99,,2013-05-18 14:03:00,
2013-05-18 08:03:00,56.0,39.0,-100.00,SE,125,7.0,13.0,52,-99.99,,,-99.99,,2013-05-18 15:03:00,
2013-05-18 08:10:00,58.0,37.0,-100.00,SE,145,12.0,15.0,45,-99.99,,,-99.99,,2013-05-18 15:10:00,
2013-05-18 09:00:00,60.0,38.0,-100.00,SE,140,13.0,18.0,43,-99.99,,,-99.99,,2013-05-18 16:00:00,
2013-05-18 09:02:00,58.0,37.0,-100.00,SE,145,12.0,15.0,45,-99.99,,,-99.99,,2013-05-18 16:02:00,
2013-05-18 10:10:00,64.0,36.0,-100.00,SSE,155,10.0,18.0,35,-99.99,,,-99.99,,2013-05-18 17:10:00,
2013-05-18 11:01:00,64.0,36.0,-100.00,SSE,155,10.0,18.0,35,-99.99,,,-99.99,,2013-05-18 18:01:00,
2013-05-18 11:20:00,66.0,36.0,-100.00,South,175,12.0,18.0,32,-99.99,,,-99.99,,2013-05-18 18:20:00,
2013-05-18 12:02:00,66.0,36.0,-100.00,South,175,12.0,18.0,32,-99.99,,,-99.99,,2013-05-18 19:02:00,
2013-05-18 12:10:00,68.0,37.0,-100.00,ESE,110,6.0,14.0,31,-99.99,,,-99.99,,2013-05-18 19:10:00,
2013-05-18 12:11:00,66.0,36.0,-100.00,South,175,12.0,18.0,32,-99.99,,,-99.99,,2013-05-18 19:11:00,
2013-05-18 13:01:00,68.0,37.0,-100.00,ESE,110,6.0,14.0,31,-99.99,,,-99.99,,2013-05-18 20:01:00,
2013-05-18 14:01:00,67.0,40.0,-100.00,NNE,15,5.0,9.0,37,-99.99,,,-99.99,,2013-05-18 21:01:00,
2013-05-18 14:10:00,68.0,39.0,-100.00,NE,40,5.0,10.0,34,-99.99,,,-99.99,,2013-05-18 21:10:00,
2013-05-18 14:12:00,67.0,40.0,-100.00,NNE,15,5.0,9.0,37,-99.99,,,-99.99,,2013-05-18 21:12:00,
2013-05-18 15:03:00,68.0,39.0,-100.00,NE,40,5.0,10.0,34,-99.99,,,-99.99,,2013-05-18 22:03:00,
2013-05-18 16:01:00,66.0,40.0,-100.00,NNE,30,9.0,14.0,38,-99.99,,,-99.99,,2013-05-18 23:01:00,
2013-05-18 16:11:00,66.0,40.0,-100.00,NNE,30,9.0,14.0,38,-99.99,,,-99.99,,2013-05-18 23:11:00,
2013-05-18 17:01:00,69.0,37.0,-100.00,NW,315,6.0,12.0,30,-99.99,,,-99.99,,2013-05-19 00:01:00,
2013-05-18 18:01:00,70.0,36.0,-100.00,SE,140,13.0,18.0,28,-99.99,,,-99.99,,2013-05-19 01:01:00,
2013-05-18 18:11:00,70.0,36.0,-100.00,SE,140,13.0,18.0,28,-99.99,,,-99.99,,2013-05-19 01:11:00,
2013-05-18 19:01:00,68.0,35.0,-100.00,ESE,120,12.0,18.0,29,-99.99,,,-99.99,,2013-05-19 02:01:00,
2013-05-18 20:01:00,67.0,34.0,-100.00,SE,140,16.0,25.0,29,-99.99,,,-99.99,,2013-05-19 03:01:00,
2013-05-18 20:11:00,67.0,34.0,-100.00,SE,140,16.0,25.0,29,-99.99,,,-99.99,,2013-05-19 03:11:00,
2013-05-18 21:02:00,63.0,35.0,-100.00,SSE,160,13.0,22.0,35,-99.99,,,-99.99,,2013-05-19 04:02:00,
2013-05-18 22:02:00,60.0,35.0,-100.00,SSE,155,14.0,21.0,39,-99.99,,,-99.99,,2013-05-19 05:02:00,
2013-05-18 22:12:00,60.0,35.0,-100.00,SSE,155,14.0,21.0,39,-99.99,,,-99.99,,2013-05-19 05:12:00,
2013-05-18 23:02:00,58.0,35.0,-100.00,SSE,165,12.0,18.0,41,-99.99,,,-99.99,,2013-05-19 06:02:00,
2013-05-18 23:10:00,57.0,35.0,-100.00,SSE,165,10.0,16.0,43,-99.99,,,-99.99,,2013-05-19 06:10:00,